| time (UTC) | temp C | wind direction | speed KPH | gust KPH | rain 1hr cm | rain 24hr cm | rain mn cm | humidity % | barometer mb |
| 20260905211517 | 17 | 338 | 3.2 | 6.4 | 0.00 | 0.51 | 0.51 | 76 | 1021.8 |
| 20260905210517 | 18 | 293 | 3.2 | 6.4 | 0.00 | 0.51 | 0.51 | 76 | 1021.6 |
| 20260905205516 | 18 | 225 | 3.2 | 8.0 | 0.00 | 0.51 | 0.51 | 75 | 1021.5 |
| 20260905204517 | 18 | 293 | 4.8 | 9.7 | 0.00 | 0.51 | 0.51 | 75 | 1021.5 |
| 20260905203516 | 18 | 270 | 4.8 | 9.7 | 0.00 | 0.51 | 0.51 | 76 | 1021.4 |
| 20260905202517 | 17 | 248 | 3.2 | 6.4 | 0.00 | 0.51 | 0.51 | 78 | 1021.3 |
| 20260905201517 | 16 | 248 | 4.8 | 11.3 | 0.00 | 0.51 | 0.51 | 81 | 1021.3 |
| 20260905200518 | 15 | 270 | 3.2 | 8.0 | 0.00 | 0.51 | 0.51 | 83 | 1021.2 |
| 20260905195517 | 15 | 270 | 3.2 | 12.9 | 0.00 | 0.51 | 0.51 | 83 | 1021.1 |
| 20260905194517 | 15 | 293 | 3.2 | 6.4 | 0.00 | 0.51 | 0.51 | 83 | 1020.9 |
| 20260905193516 | 15 | 293 | 3.2 | 6.4 | 0.00 | 0.51 | 0.51 | 83 | |
| 20260905192516 | 15 | 293 | 3.2 | 4.8 | 0.00 | 0.51 | 0.51 | 82 | |
| 20260905191537 | 16 | 293 | 3.2 | 4.8 | 0.00 | 0.51 | 0.51 | 81 | |
| 20260905190517 | 16 | 293 | 3.2 | 4.8 | 0.00 | 0.51 | 0.51 | 81 | 1020.7 |
| 20260905185536 | 16 | 293 | 3.2 | 4.8 | 0.00 | 0.51 | 0.51 | 80 | 1020.7 |
| 20260905184538 | 16 | 293 | 3.2 | 4.8 | 0.00 | 0.51 | 0.51 | 79 | 1020.5 |
| 20260905183516 | 17 | 293 | 3.2 | 4.8 | 0.00 | 0.51 | 0.51 | 78 | 1020.4 |
| 20260905182518 | 17 | 293 | 1.6 | 3.2 | 0.00 | 0.51 | 0.51 | 76 | 1020.2 |
| 20260905181517 | 18 | 293 | 1.6 | 4.8 | 0.00 | 0.51 | 0.51 | 74 | 1020.1 |
| 20260905180517 | 18 | 293 | 1.6 | 3.2 | 0.00 | 0.51 | 0.51 | 72 | 1020.2 |
| 20260905175516 | 20 | 293 | 1.6 | 3.2 | 0.00 | 0.51 | 0.51 | 67 | 1020.1 |
| 20260905174517 | 20 | 293 | 3.2 | 4.8 | 0.00 | 0.51 | 0.51 | 65 | 1020.0 |
| 20260905173518 | 21 | 270 | 3.2 | 6.4 | 0.00 | 0.51 | 0.51 | 62 | 1019.8 |
| 20260905172537 | 21 | 315 | 1.6 | 4.8 | 0.00 | 0.51 | 0.51 | 59 | 1019.7 |
| 20260905171517 | 22 | 315 | 4.8 | 8.0 | 0.00 | 0.51 | 0.51 | 57 | 1019.7 |
| 20260905170518 | 22 | 270 | 4.8 | 11.3 | 0.00 | 0.51 | 0.51 | 56 | 1019.6 |
| 20260905165517 | 22 | 293 | 4.8 | 9.7 | 0.00 | 0.51 | 0.51 | 55 | 1019.6 |
| 20260905164518 | 23 | 293 | 6.4 | 12.9 | 0.00 | 0.51 | 0.51 | 55 | 1019.4 |
| 20260905163537 | -17 | 270 | 6.4 | 16.1 | 0.00 | 0.51 | 0.51 | ||
| 20260905162517 | -17 | 270 | 6.4 | 12.9 | 0.00 | 0.51 | 0.51 | ||
| 20260905161517 | -17 | 293 | 9.7 | 19.3 | 0.00 | 0.51 | 0.51 | ||
| 20260905160518 | -17 | 270 | 6.4 | 14.5 | 0.00 | 0.51 | 0.51 | ||
| 20260905155517 | -17 | 270 | 11.3 | 22.5 | 0.00 | 0.51 | 0.51 | ||
| 20260905154517 | -17 | 270 | 8.0 | 17.7 | 0.00 | 0.51 | 0.51 | ||
| 20260905153537 | -17 | 293 | 9.7 | 16.1 | 0.00 | 0.51 | 0.51 | ||
| 20260905152519 | -17 | 270 | 6.4 | 16.1 | 0.00 | 0.51 | 0.51 | 51 | |
| 20260905151518 | -17 | 281 | 6.4 | 0.0 | 0.00 | 0.51 | 0.51 | 51 | |
| 20260905150517 | -17 | 293 | 9.7 | 19.3 | 0.00 | 0.51 | 0.51 | 51 | |
| 20260905145517 | -17 | 270 | 11.3 | 20.9 | 0.00 | 0.51 | 0.51 | ||
| 20260905144517 | -17 | 270 | 12.9 | 20.9 | 0.00 | 0.51 | 0.51 | ||
| 20260905144135 | -17 | 270 | 11.3 | 20.9 | 0.00 | 0.51 | 0.51 | ||
| 20260905141517 | -17 | 270 | 11.3 | 19.3 | 0.00 | 0.51 | 0.51 | ||
| 20260905140538 | -17 | 270 | 11.3 | 24.1 | 0.00 | 0.51 | 0.51 | ||
| 20260905135517 | -17 | 248 | 9.7 | 24.1 | 0.00 | 0.51 | 0.51 | ||
| 20260905134517 | -17 | 293 | 11.3 | 27.4 | 0.00 | 0.51 | 0.51 | ||
| 20260905133518 | -17 | 270 | 12.9 | 25.7 | 0.00 | 0.51 | 0.51 | ||
| 20260905132517 | 23 | 270 | 16.1 | 35.4 | 0.00 | 0.51 | 0.51 | 60 | |
| 20260905131517 | 23 | 225 | 14.5 | 25.7 | 0.00 | 0.51 | 0.51 | 60 | 1019.2 |
| 20260905130520 | 23 | 270 | 14.5 | 27.4 | 0.00 | 0.51 | 0.51 | 60 | 1019.2 |
| 20260905130408 | 23 | 270 | 12.9 | 29.0 | 0.00 | 0.51 | 0.51 | 60 | 1019.2 |
| 20260905123517 | 23 | 270 | 16.1 | 24.1 | 0.00 | 0.51 | 0.51 | 62 | 1019.6 |
| 20260905122517 | 22 | 270 | 16.1 | 30.6 | 0.00 | 0.51 | 0.51 | 63 | 1019.4 |
| 20260905121517 | 22 | 225 | 12.9 | 30.6 | 0.00 | 0.51 | 0.51 | 63 | 1019.4 |
| 20260905120517 | 23 | 270 | 12.9 | 33.8 | 0.00 | 0.51 | 0.51 | 64 | 1019.4 |
| 20260905115537 | 22 | 270 | 9.7 | 24.1 | 0.00 | 0.51 | 0.51 | 65 | 1019.4 |
| 20260905114517 | 22 | 270 | 12.9 | 25.7 | 0.00 | 0.51 | 0.51 | 67 | 1019.7 |
| 20260905113517 | 22 | 270 | 12.9 | 19.3 | 0.00 | 0.51 | 0.51 | 68 | 1019.6 |
| 20260905112517 | 22 | 270 | 14.5 | 24.1 | 0.00 | 0.51 | 0.51 | 70 | 1019.8 |
| 20260905111537 | 21 | 270 | 11.3 | 25.7 | 0.00 | 0.51 | 0.51 | 70 | 1019.8 |
| 20260905110517 | 21 | 270 | 16.1 | 27.4 | 0.00 | 0.51 | 0.51 | 71 | 1019.8 |
| 20260905105517 | 20 | 270 | 12.9 | 27.4 | 0.03 | 0.51 | 0.51 | 74 | 1020.0 |
| 20260905104517 | 20 | 293 | 12.9 | 24.1 | 0.03 | 0.51 | 0.51 | 76 | 1019.9 |
| 20260905103537 | 20 | 270 | 8.0 | 16.1 | 0.03 | 0.51 | 0.51 | 76 | 1019.9 |
| 20260905102517 | 20 | 270 | 12.9 | 22.5 | 0.03 | 0.51 | 0.51 | 78 | 1020.0 |
| 20260905101517 | 20 | 270 | 14.5 | 30.6 | 0.03 | 0.51 | 0.51 | 78 | 1020.1 |
| 20260905100517 | 20 | 270 | 14.5 | 27.4 | 0.03 | 0.51 | 0.51 | 80 | 1020.1 |
| 20260905095517 | 18 | 248 | 9.7 | 24.1 | 0.00 | 0.48 | 0.48 | 82 | 1020.1 |
| 20260905094517 | 18 | 270 | 11.3 | 19.3 | 0.00 | 0.48 | 0.48 | 84 | 1020.0 |
| 20260905093517 | 17 | 270 | 9.7 | 17.7 | 0.00 | 0.48 | 0.48 | 85 | 1020.1 |
| 20260905092517 | 16 | 270 | 6.4 | 11.3 | 0.03 | 0.48 | 0.48 | 86 | 1020.1 |
| 20260905091517 | 16 | 270 | 4.8 | 9.7 | 0.03 | 0.48 | 0.48 | 86 | 1020.1 |
| 20260905090517 | 15 | 270 | 9.7 | 14.5 | 0.05 | 0.48 | 0.48 | 86 | 1020.0 |
| 20260905085517 | 15 | 293 | 6.4 | 12.9 | 0.05 | 0.48 | 0.48 | 86 | 1019.9 |
| 20260905084519 | 15 | 315 | 6.4 | 9.7 | 0.05 | 0.48 | 0.48 | 87 | 1019.9 |
| 20260905083537 | 15 | 225 | 9.7 | 14.5 | 0.05 | 0.48 | 0.48 | 87 | 1019.7 |
| 20260905082538 | 15 | 270 | 14.5 | 25.7 | 0.03 | 0.46 | 0.46 | 87 | 1020.0 |
| 20260905081517 | 15 | 270 | 6.4 | 14.5 | 0.03 | 0.46 | 0.46 | 87 | 1020.0 |
| 20260905080517 | 15 | 270 | 8.0 | 16.1 | 0.15 | 0.43 | 0.43 | 87 | 1020.0 |
| 20260905075517 | 15 | 270 | 8.0 | 14.5 | 0.15 | 0.43 | 0.43 | 87 | 1020.1 |
| 20260905074517 | 15 | 270 | 6.4 | 12.9 | 0.15 | 0.43 | 0.43 | 87 | 1020.0 |
| 20260905073517 | 15 | 270 | 8.0 | 11.3 | 0.23 | 0.43 | 0.43 | 87 | 1020.1 |
| 20260905072517 | 15 | 270 | 4.8 | 12.9 | 0.33 | 0.43 | 0.43 | 87 | 1020.1 |
| 20260905071517 | 15 | 270 | 4.8 | 8.0 | 0.33 | 0.43 | 0.43 | 87 | 1020.0 |
| 20260905070518 | -17 | 180 | 1.6 | 4.8 | 0.15 | 0.28 | 0.28 | ||
| 20260905065517 | 15 | 203 | 4.8 | 11.3 | 0.15 | 0.28 | 0.28 | 84 | |
| 20260905064515 | 15 | 293 | 4.8 | 8.0 | 0.20 | 0.28 | 0.28 | 84 | 1020.0 |
| 20260905063517 | 15 | 270 | 4.8 | 8.0 | 0.20 | 0.20 | 0.23 | 84 | 1020.1 |
| 20260905062517 | 15 | 293 | 6.4 | 11.3 | 0.13 | 0.13 | 0.13 | 83 | 1019.8 |
| 20260905061517 | 15 | 270 | 4.8 | 11.3 | 0.13 | 0.13 | 0.13 | 83 | 1019.0 |
| 20260905060539 | 15 | 270 | 4.8 | 12.9 | 0.13 | 0.13 | 0.13 | 81 | 1019.1 |
| 20260905055517 | 15 | 293 | 9.7 | 16.1 | 0.13 | 0.13 | 0.13 | 79 | 1019.2 |
| 20260905054517 | 17 | 293 | 11.3 | 22.5 | 0.08 | 0.08 | 0.08 | 69 | 1019.5 |
| 20260905053517 | 19 | 315 | 12.9 | 22.5 | 0.00 | 0.00 | 0.00 | 60 | 1019.3 |
| 20260905052517 | 19 | 338 | 11.3 | 20.9 | 0.00 | 0.00 | 0.00 | 57 | 1018.2 |
| 20260905051517 | 19 | 315 | 14.5 | 24.1 | 0.00 | 0.00 | 0.00 | 57 | 1018.1 |
| 20260905050557 | 19 | 315 | 12.9 | 19.3 | 0.00 | 0.00 | 0.00 | 57 | 1017.7 |
| 20260905045518 | 20 | 338 | 14.5 | 32.2 | 0.00 | 0.00 | 0.00 | 57 | 1017.3 |
| 20260905044537 | 20 | 338 | 9.7 | 16.1 | 0.00 | 0.00 | 0.00 | 58 | 1017.7 |
| 20260905043517 | 20 | 315 | 6.4 | 12.9 | 0.00 | 0.00 | 0.00 | 58 | 1017.6 |
| 20260905042517 | 20 | 315 | 6.4 | 14.5 | 0.00 | 0.00 | 0.00 | 59 | 1017.5 |
| 20260905041517 | 20 | 315 | 11.3 | 19.3 | 0.00 | 0.00 | 0.00 | 59 | 1017.3 |
| 20260905040517 | 20 | 338 | 6.4 | 11.3 | 0.00 | 0.00 | 0.00 | 60 | 1016.8 |
| 20260905035517 | 20 | 315 | 8.0 | 14.5 | 0.00 | 0.00 | 0.00 | 59 | 1016.8 |
| 20260905034517 | 20 | 315 | 8.0 | 17.7 | 0.00 | 0.00 | 0.00 | 60 | |
| 20260905033537 | 20 | 315 | 11.3 | 19.3 | 0.00 | 0.00 | 0.00 | 60 | |
| 20260905032517 | 20 | 270 | 6.4 | 11.3 | 0.00 | 0.00 | 0.00 | 62 | |
| 20260905031517 | 21 | 338 | 4.8 | 9.7 | 0.00 | 0.00 | 0.00 | 63 | |
| 20260905030517 | 21 | 315 | 8.0 | 16.1 | 0.00 | 0.00 | 0.00 | 63 | |
| 20260905025518 | 21 | 338 | 9.7 | 19.3 | 0.00 | 0.00 | 0.00 | 64 | |
| 20260905024517 | 21 | 338 | 14.5 | 25.7 | 0.00 | 0.00 | 0.00 | 64 | |
| 20260905023517 | 21 | 338 | 9.7 | 16.1 | 0.00 | 0.00 | 0.00 | 66 | |
| 20260905022517 | 21 | 315 | 6.4 | 11.3 | 0.00 | 0.00 | 0.00 | 67 | |
| 20260905021537 | 20 | 293 | 8.0 | 14.5 | 0.00 | 0.00 | 0.00 | 67 | |
| 20260905020519 | 20 | 293 | 6.4 | 11.3 | 0.00 | 0.00 | 0.00 | 72 | |
| 20260905015517 | 20 | 293 | 4.8 | 6.4 | 0.00 | 0.00 | 0.00 | 71 | |
| 20260905014517 | 21 | 315 | 3.2 | 6.4 | 0.00 | 0.00 | 0.00 | 68 | |
| 20260905013517 | 21 | 293 | 8.0 | 12.9 | 0.00 | 0.00 | 0.00 | 64 | |
| 20260905012517 | 20 | 293 | 6.4 | 11.3 | 0.00 | 0.00 | 0.00 | 64 | |
| 20260905011519 | 20 | 293 | 6.4 | 11.3 | 0.00 | 0.00 | 0.00 | 65 | |
| 20260905010537 | 19 | 315 | 6.4 | 9.7 | 0.00 | 0.00 | 0.00 | 68 | |
| 20260905005517 | 19 | 315 | 4.8 | 8.0 | 0.00 | 0.00 | 0.00 | 68 | |
| 20260905004517 | 20 | 315 | 3.2 | 4.8 | 0.00 | 0.00 | 0.00 | 67 | 1013.2 |
| 20260905003517 | 20 | 315 | 3.2 | 4.8 | 0.00 | 0.00 | 0.00 | 65 | 1013.2 |
| 20260905002517 | 21 | 315 | 3.2 | 6.4 | 0.00 | 0.00 | 0.00 | 63 | 1013.2 |
| 20260905001517 | 21 | 315 | 3.2 | 6.4 | 0.00 | 0.00 | 0.00 | 61 | 1013.1 |
| 20260905000517 | 21 | 315 | 6.4 | 9.7 | 0.00 | 0.00 | 0.00 | 60 | 1013.0 |
| 20260904235517 | 21 | 315 | 6.4 | 14.5 | 0.00 | 0.00 | 0.00 | 61 | 1012.8 |
| 20260904234517 | 20 | 315 | 6.4 | 9.7 | 0.00 | 0.00 | 0.00 | 63 | 1012.8 |
| 20260904233517 | 20 | 315 | 4.8 | 9.7 | 0.00 | 0.00 | 0.00 | 65 | 1012.7 |
| 20260904232517 | 20 | 315 | 4.8 | 9.7 | 0.00 | 0.00 | 0.00 | 64 | 1012.6 |
| 20260904231537 | 20 | 315 | 4.8 | 6.4 | 0.00 | 0.00 | 0.00 | 64 | 1012.6 |
| 20260904230537 | 20 | 293 | 6.4 | 9.7 | 0.00 | 0.00 | 0.00 | 63 | 1012.6 |
| 20260904225517 | 21 | 315 | 4.8 | 6.4 | 0.00 | 0.00 | 0.00 | 62 | 1012.4 |
| 20260904224517 | 21 | 293 | 8.0 | 9.7 | 0.00 | 0.00 | 0.00 | 61 | 1012.4 |
| 20260904223517 | 21 | 293 | 6.4 | 9.7 | 0.00 | 0.00 | 0.00 | 61 | 1012.3 |
| 20260904222518 | 20 | 315 | 4.8 | 9.7 | 0.00 | 0.00 | 0.00 | 63 | 1012.3 |
| 20260904221518 | 20 | 293 | 4.8 | 9.7 | 0.00 | 0.00 | 0.00 | 63 | 1012.2 |
| 20260904220517 | 20 | 293 | 4.8 | 8.0 | 0.00 | 0.00 | 0.00 | 62 | 1012.3 |
| 20260904215517 | 20 | 293 | 4.8 | 8.0 | 0.00 | 0.00 | 0.00 | 62 | 1012.3 |
| 20260904214517 | 20 | 293 | 4.8 | 9.7 | 0.00 | 0.00 | 0.00 | 64 | 1012.3 |
| 20260904213537 | 18 | 315 | 4.8 | 6.4 | 0.00 | 0.00 | 0.00 | 69 | 1012.3 |
| 20260904212537 | 17 | 315 | 3.2 | 4.8 | 0.00 | 0.00 | 0.00 | 74 | 1012.3 |